Aérodrome :
LOGIN :

S'inscrire | Disclaimer

   EN    FR    IT 

 










Légende :    VFR   VFR Marginal   IFR   IFR Intensif   IFR Très Intensif
Visi : 
Plafond : 
>= 8 km
>= 3000ft
5 à 8 km
1000 à 3000 ft
1500m à 5 km
500 à 1000 ft
800 à 1500m
200 à 500 ft
< 800m
< 200 ft
Symboles :   Orages  Brouillard  Fortes neiges  Fortes précipitations  Vent > 20 kt
SIGMETs :   Divers  Orages  Givrage  Turbulence  Onde Orograph.  Cendres Volcan.







- Altitude de l'aérodrome : 459 ft
- Code IATA : CER
- Voir les cartes d'approche


LFRC - Cherbourg / Maupertus

DERNIER METAR :
  • 220600Z AUTO 25021KT 3200 -RA BR OVC006 11/11 Q1007 TEMPO 2500 +RA BKN003 BECMG 26020G30KT

METARs EXPIRÉS :
  • 220530Z AUTO 25020KT 210V270 4900 -RA BR OVC007 11/11 Q1008 TEMPO 2500 +RA BKN003 BECMG 26020G30KT
  • 220500Z AUTO 25018KT 4900 -RADZ BR OVC006 11/11 Q1008
  • 220430Z AUTO 25014KT 4900 -RA BR OVC006 11/11 Q1009
  • 220400Z AUTO 26013KT 4200 -RA BR OVC006 11/11 Q1009
  • 220330Z AUTO 26018KT 8000 -RA OVC006 11/11 Q1010

TAF TAF LFRC
Valide du 22 à 06h jusqu'au 22 à 15h UTC


220500Z 2206/2215 26020G30KT 6000 RA BKN012
TEMPO 2206/2212 2500 +RA BKN003
BECMG 2208/2210 36012KT
BECMG 2211/2213 30012KT 9999 NSW BKN020
Pas de NOTAMs connus pour ce terrain.
1 SIGMET publié pour la FIR Brest (LFRR) :
 
Turbulence forte
LFRR SIGMET 1 VALID 220400/220800 LFPW
LFRR BREST FIR/UIR SEV TURB FCST WI N4630 W00800 - N4900 W00800 - N4915 W00700 - N4845 W00345 - N4700 W00315 - N4630 W00800 SFC/FL060 STNR INTSF=



MET'MAP, la Météo Aéronautique d'un coup d'oeil ! - Copyright ORBIFLY Décembre 2007 - Disclaimer

ORBIFLY MET'MAP TEAM :

Programmation & Développement : Alexandra Zaïnal
Conception & Développement : Baudouin d'Aumeries
Co-Programmation & Développement : Marc-Olivier Méhu
Soutien technique & logistique : Manuel Goepfert

Contact : metmap@orbifly.com




SOURCES & CREDITS :

   NOAA